sensor_id;sensor_type;location;lat;lon;timestamp;temperature;humidity
20498;DHT22;10407;53.238;10.448;2023-05-07T00:01:08;9.20;99.90
20498;DHT22;10407;53.238;10.448;2023-05-07T00:03:36;9.20;99.90
20498;DHT22;10407;53.238;10.448;2023-05-07T00:06:04;9.30;99.90
20498;DHT22;10407;53.238;10.448;2023-05-07T00:08:32;9.20;99.90
20498;DHT22;10407;53.238;10.448;2023-05-07T00:10:59;9.20;99.90
20498;DHT22;10407;53.238;10.448;2023-05-07T00:13:27;9.10;99.90
20498;DHT22;10407;53.238;10.448;2023-05-07T00:15:56;9.20;99.90
20498;DHT22;10407;53.238;10.448;2023-05-07T00:18:23;9.20;99.90
20498;DHT22;10407;53.238;10.448;2023-05-07T00:20:51;9.40;99.90
20498;DHT22;10407;53.238;10.448;2023-05-07T00:23:19;9.30;99.90
20498;DHT22;10407;53.238;10.448;2023-05-07T00:25:46;9.20;99.90
20498;DHT22;10407;53.238;10.448;2023-05-07T00:28:14;9.30;99.90
20498;DHT22;10407;53.238;10.448;2023-05-07T00:30:41;9.40;99.90
20498;DHT22;10407;53.238;10.448;2023-05-07T00:33:09;9.30;99.90
20498;DHT22;10407;53.238;10.448;2023-05-07T00:35:37;9.30;99.90
20498;DHT22;10407;53.238;10.448;2023-05-07T00:38:04;9.20;99.90
20498;DHT22;10407;53.238;10.448;2023-05-07T00:40:32;9.10;99.90
20498;DHT22;10407;53.238;10.448;2023-05-07T00:42:59;9.20;99.90
20498;DHT22;10407;53.238;10.448;2023-05-07T00:45:27;9.30;99.90
20498;DHT22;10407;53.238;10.448;2023-05-07T00:47:57;9.40;99.90
20498;DHT22;10407;53.238;10.448;2023-05-07T00:50:26;9.30;99.90
20498;DHT22;10407;53.238;10.448;2023-05-07T00:52:55;9.40;99.90
20498;DHT22;10407;53.238;10.448;2023-05-07T00:55:23;9.10;99.90
20498;DHT22;10407;53.238;10.448;2023-05-07T00:57:51;9.30;99.90
20498;DHT22;10407;53.238;10.448;2023-05-07T01:00:19;9.40;99.90
20498;DHT22;10407;53.238;10.448;2023-05-07T01:02:47;9.30;99.90
20498;DHT22;10407;53.238;10.448;2023-05-07T01:05:17;9.30;99.90
20498;DHT22;10407;53.238;10.448;2023-05-07T01:07:46;9.30;99.90
20498;DHT22;10407;53.238;10.448;2023-05-07T01:10:15;9.30;99.90
20498;DHT22;10407;53.238;10.448;2023-05-07T01:12:43;9.20;99.90
20498;DHT22;10407;53.238;10.448;2023-05-07T01:15:12;9.30;99.90
20498;DHT22;10407;53.238;10.448;2023-05-07T01:17:41;9.30;99.90
20498;DHT22;10407;53.238;10.448;2023-05-07T01:20:10;9.30;99.90
20498;DHT22;10407;53.238;10.448;2023-05-07T01:22:39;9.20;99.90
20498;DHT22;10407;53.238;10.448;2023-05-07T01:25:07;9.10;99.90
20498;DHT22;10407;53.238;10.448;2023-05-07T01:27:35;9.00;99.90
20498;DHT22;10407;53.238;10.448;2023-05-07T01:30:07;9.20;99.90
20498;DHT22;10407;53.238;10.448;2023-05-07T01:35:16;8.90;99.90
20498;DHT22;10407;53.238;10.448;2023-05-07T01:37:39;9.00;99.90
20498;DHT22;10407;53.238;10.448;2023-05-07T01:40:08;9.10;99.90
20498;DHT22;10407;53.238;10.448;2023-05-07T01:42:36;9.00;99.90
20498;DHT22;10407;53.238;10.448;2023-05-07T01:45:05;9.10;99.90
20498;DHT22;10407;53.238;10.448;2023-05-07T01:47:33;9.20;99.90
20498;DHT22;10407;53.238;10.448;2023-05-07T01:50:01;9.00;99.90
20498;DHT22;10407;53.238;10.448;2023-05-07T01:52:28;9.00;99.90
20498;DHT22;10407;53.238;10.448;2023-05-07T01:54:56;9.20;99.90
20498;DHT22;10407;53.238;10.448;2023-05-07T01:57:24;9.10;99.90
20498;DHT22;10407;53.238;10.448;2023-05-07T01:59:51;9.30;99.90
20498;DHT22;10407;53.238;10.448;2023-05-07T02:02:19;9.00;99.90
20498;DHT22;10407;53.238;10.448;2023-05-07T02:04:46;9.00;99.90
20498;DHT22;10407;53.238;10.448;2023-05-07T02:07:14;9.10;99.90
20498;DHT22;10407;53.238;10.448;2023-05-07T02:09:42;8.90;99.90
20498;DHT22;10407;53.238;10.448;2023-05-07T02:12:09;9.00;99.90
20498;DHT22;10407;53.238;10.448;2023-05-07T02:14:37;8.70;99.90
20498;DHT22;10407;53.238;10.448;2023-05-07T02:17:04;8.90;99.90
20498;DHT22;10407;53.238;10.448;2023-05-07T02:19:32;9.00;99.90
20498;DHT22;10407;53.238;10.448;2023-05-07T02:21:59;9.00;99.90
20498;DHT22;10407;53.238;10.448;2023-05-07T02:24:27;8.90;99.90
20498;DHT22;10407;53.238;10.448;2023-05-07T02:26:55;9.00;99.90
20498;DHT22;10407;53.238;10.448;2023-05-07T02:29:22;9.10;99.90
20498;DHT22;10407;53.238;10.448;2023-05-07T02:31:50;9.20;99.90
20498;DHT22;10407;53.238;10.448;2023-05-07T02:34:19;9.20;99.90
20498;DHT22;10407;53.238;10.448;2023-05-07T02:36:47;9.20;99.90
20498;DHT22;10407;53.238;10.448;2023-05-07T02:39:15;9.20;99.90
20498;DHT22;10407;53.238;10.448;2023-05-07T02:41:54;9.00;99.90
20498;DHT22;10407;53.238;10.448;2023-05-07T02:44:22;9.20;99.90
20498;DHT22;10407;53.238;10.448;2023-05-07T02:46:49;9.20;99.90
20498;DHT22;10407;53.238;10.448;2023-05-07T02:49:17;9.20;99.90
20498;DHT22;10407;53.238;10.448;2023-05-07T02:51:44;9.20;99.90
20498;DHT22;10407;53.238;10.448;2023-05-07T02:54:12;9.20;99.90
20498;DHT22;10407;53.238;10.448;2023-05-07T02:56:39;9.10;99.90
20498;DHT22;10407;53.238;10.448;2023-05-07T02:59:07;9.20;99.90
20498;DHT22;10407;53.238;10.448;2023-05-07T03:01:34;9.20;99.90
20498;DHT22;10407;53.238;10.448;2023-05-07T03:04:02;9.10;99.90
20498;DHT22;10407;53.238;10.448;2023-05-07T03:06:29;9.00;99.90
20498;DHT22;10407;53.238;10.448;2023-05-07T03:08:57;9.00;99.90
20498;DHT22;10407;53.238;10.448;2023-05-07T03:11:24;9.10;99.90
20498;DHT22;10407;53.238;10.448;2023-05-07T03:13:52;9.30;99.90
20498;DHT22;10407;53.238;10.448;2023-05-07T03:16:19;9.20;99.90
20498;DHT22;10407;53.238;10.448;2023-05-07T03:18:47;9.20;99.90
20498;DHT22;10407;53.238;10.448;2023-05-07T03:21:14;9.10;99.90
20498;DHT22;10407;53.238;10.448;2023-05-07T03:23:42;9.10;99.90
20498;DHT22;10407;53.238;10.448;2023-05-07T03:26:09;9.20;99.90
20498;DHT22;10407;53.238;10.448;2023-05-07T03:28:37;9.30;99.90
20498;DHT22;10407;53.238;10.448;2023-05-07T03:31:05;9.40;99.90
20498;DHT22;10407;53.238;10.448;2023-05-07T03:33:34;9.40;99.90
20498;DHT22;10407;53.238;10.448;2023-05-07T03:36:01;9.30;99.90
20498;DHT22;10407;53.238;10.448;2023-05-07T03:38:29;9.00;99.90
20498;DHT22;10407;53.238;10.448;2023-05-07T03:40:56;9.00;99.90
20498;DHT22;10407;53.238;10.448;2023-05-07T03:43:24;9.10;99.90
20498;DHT22;10407;53.238;10.448;2023-05-07T03:45:52;9.20;99.90
20498;DHT22;10407;53.238;10.448;2023-05-07T03:48:19;9.30;99.90
20498;DHT22;10407;53.238;10.448;2023-05-07T03:50:46;9.20;99.90
20498;DHT22;10407;53.238;10.448;2023-05-07T03:53:14;9.10;99.90
20498;DHT22;10407;53.238;10.448;2023-05-07T03:55:41;9.20;99.90
20498;DHT22;10407;53.238;10.448;2023-05-07T03:58:09;9.20;99.90
20498;DHT22;10407;53.238;10.448;2023-05-07T04:00:36;9.30;99.90
20498;DHT22;10407;53.238;10.448;2023-05-07T04:03:06;9.30;99.90
20498;DHT22;10407;53.238;10.448;2023-05-07T04:05:33;9.30;99.90
20498;DHT22;10407;53.238;10.448;2023-05-07T04:08:01;9.20;99.90
20498;DHT22;10407;53.238;10.448;2023-05-07T04:10:30;9.30;99.90
20498;DHT22;10407;53.238;10.448;2023-05-07T04:12:57;9.30;99.90
20498;DHT22;10407;53.238;10.448;2023-05-07T04:15:25;9.20;99.90
20498;DHT22;10407;53.238;10.448;2023-05-07T04:17:52;9.00;99.90
20498;DHT22;10407;53.238;10.448;2023-05-07T04:20:20;9.20;99.90
20498;DHT22;10407;53.238;10.448;2023-05-07T04:22:47;9.30;99.90
20498;DHT22;10407;53.238;10.448;2023-05-07T04:25:16;9.30;99.90
20498;DHT22;10407;53.238;10.448;2023-05-07T04:27:43;9.30;99.90
20498;DHT22;10407;53.238;10.448;2023-05-07T04:30:12;9.20;99.90
20498;DHT22;10407;53.238;10.448;2023-05-07T04:32:40;9.20;99.90
20498;DHT22;10407;53.238;10.448;2023-05-07T04:35:08;9.30;99.90
20498;DHT22;10407;53.238;10.448;2023-05-07T04:37:35;9.30;99.90
20498;DHT22;10407;53.238;10.448;2023-05-07T04:40:03;9.30;99.90
20498;DHT22;10407;53.238;10.448;2023-05-07T04:42:30;9.40;99.90
20498;DHT22;10407;53.238;10.448;2023-05-07T04:44:58;9.40;99.90
20498;DHT22;10407;53.238;10.448;2023-05-07T04:47:26;9.40;99.90
20498;DHT22;10407;53.238;10.448;2023-05-07T04:49:54;9.50;99.90
20498;DHT22;10407;53.238;10.448;2023-05-07T04:52:21;9.40;99.90
20498;DHT22;10407;53.238;10.448;2023-05-07T04:54:49;9.40;99.90
20498;DHT22;10407;53.238;10.448;2023-05-07T04:57:16;9.40;99.90
20498;DHT22;10407;53.238;10.448;2023-05-07T04:59:44;9.20;99.90
20498;DHT22;10407;53.238;10.448;2023-05-07T05:02:12;9.30;99.90
20498;DHT22;10407;53.238;10.448;2023-05-07T05:04:40;9.20;99.90
20498;DHT22;10407;53.238;10.448;2023-05-07T05:07:08;9.40;99.90
20498;DHT22;10407;53.238;10.448;2023-05-07T05:09:35;9.40;99.90
20498;DHT22;10407;53.238;10.448;2023-05-07T05:12:03;9.30;99.90
20498;DHT22;10407;53.238;10.448;2023-05-07T05:14:33;9.30;99.90
20498;DHT22;10407;53.238;10.448;2023-05-07T05:17:00;9.40;99.90
20498;DHT22;10407;53.238;10.448;2023-05-07T05:19:28;9.50;99.90
20498;DHT22;10407;53.238;10.448;2023-05-07T05:21:55;9.50;99.90
20498;DHT22;10407;53.238;10.448;2023-05-07T05:24:23;9.30;99.90
20498;DHT22;10407;53.238;10.448;2023-05-07T05:26:51;9.40;99.90
20498;DHT22;10407;53.238;10.448;2023-05-07T05:29:19;9.40;99.90
20498;DHT22;10407;53.238;10.448;2023-05-07T05:31:47;9.40;99.90
20498;DHT22;10407;53.238;10.448;2023-05-07T05:34:14;9.40;99.90
20498;DHT22;10407;53.238;10.448;2023-05-07T05:36:44;9.40;99.90
20498;DHT22;10407;53.238;10.448;2023-05-07T05:39:11;9.40;99.90
20498;DHT22;10407;53.238;10.448;2023-05-07T05:41:39;9.60;99.90
20498;DHT22;10407;53.238;10.448;2023-05-07T05:44:06;9.40;99.90
20498;DHT22;10407;53.238;10.448;2023-05-07T05:46:35;9.40;99.90
20498;DHT22;10407;53.238;10.448;2023-05-07T05:49:02;9.50;99.90
20498;DHT22;10407;53.238;10.448;2023-05-07T05:51:30;9.50;99.90
20498;DHT22;10407;53.238;10.448;2023-05-07T05:53:57;9.60;99.90
20498;DHT22;10407;53.238;10.448;2023-05-07T05:56:25;9.60;99.90
20498;DHT22;10407;53.238;10.448;2023-05-07T05:58:53;9.60;99.90
20498;DHT22;10407;53.238;10.448;2023-05-07T06:01:20;9.50;99.90
20498;DHT22;10407;53.238;10.448;2023-05-07T06:03:48;9.50;99.90
20498;DHT22;10407;53.238;10.448;2023-05-07T06:06:15;9.50;99.90
20498;DHT22;10407;53.238;10.448;2023-05-07T06:08:43;9.60;99.90
20498;DHT22;10407;53.238;10.448;2023-05-07T06:11:11;9.50;99.90
20498;DHT22;10407;53.238;10.448;2023-05-07T06:13:38;9.60;99.90
20498;DHT22;10407;53.238;10.448;2023-05-07T06:16:06;9.70;99.90
20498;DHT22;10407;53.238;10.448;2023-05-07T06:18:34;9.60;99.90
20498;DHT22;10407;53.238;10.448;2023-05-07T06:21:02;9.70;99.90
20498;DHT22;10407;53.238;10.448;2023-05-07T06:23:30;9.70;99.90
20498;DHT22;10407;53.238;10.448;2023-05-07T06:25:57;9.70;99.90
20498;DHT22;10407;53.238;10.448;2023-05-07T06:28:25;9.60;99.90
20498;DHT22;10407;53.238;10.448;2023-05-07T06:30:52;9.60;99.90
20498;DHT22;10407;53.238;10.448;2023-05-07T06:33:20;9.80;99.90
20498;DHT22;10407;53.238;10.448;2023-05-07T06:35:47;9.80;99.90
20498;DHT22;10407;53.238;10.448;2023-05-07T06:38:15;9.90;99.90
20498;DHT22;10407;53.238;10.448;2023-05-07T06:40:43;9.80;99.90
20498;DHT22;10407;53.238;10.448;2023-05-07T06:43:12;9.90;99.90
20498;DHT22;10407;53.238;10.448;2023-05-07T06:45:40;9.90;99.90
20498;DHT22;10407;53.238;10.448;2023-05-07T06:48:07;9.90;99.90
20498;DHT22;10407;53.238;10.448;2023-05-07T06:50:35;9.90;99.90
20498;DHT22;10407;53.238;10.448;2023-05-07T06:53:02;9.90;99.90
20498;DHT22;10407;53.238;10.448;2023-05-07T06:55:30;9.80;99.90
20498;DHT22;10407;53.238;10.448;2023-05-07T06:57:58;9.90;99.90
20498;DHT22;10407;53.238;10.448;2023-05-07T07:00:27;9.80;99.90
20498;DHT22;10407;53.238;10.448;2023-05-07T07:02:56;9.70;99.90
20498;DHT22;10407;53.238;10.448;2023-05-07T07:05:23;9.80;99.90
20498;DHT22;10407;53.238;10.448;2023-05-07T07:07:51;9.90;99.90
20498;DHT22;10407;53.238;10.448;2023-05-07T07:10:24;9.90;99.90
20498;DHT22;10407;53.238;10.448;2023-05-07T07:12:52;9.90;99.90
20498;DHT22;10407;53.238;10.448;2023-05-07T07:15:20;10.00;99.90
20498;DHT22;10407;53.238;10.448;2023-05-07T07:17:48;10.00;99.90
20498;DHT22;10407;53.238;10.448;2023-05-07T07:20:15;10.10;99.90
20498;DHT22;10407;53.238;10.448;2023-05-07T07:22:43;10.00;99.90
20498;DHT22;10407;53.238;10.448;2023-05-07T07:25:10;9.70;99.90
20498;DHT22;10407;53.238;10.448;2023-05-07T07:27:38;10.00;99.90
20498;DHT22;10407;53.238;10.448;2023-05-07T07:30:07;10.20;99.90
20498;DHT22;10407;53.238;10.448;2023-05-07T07:32:35;10.20;99.90
20498;DHT22;10407;53.238;10.448;2023-05-07T07:35:02;10.10;99.90
20498;DHT22;10407;53.238;10.448;2023-05-07T07:37:31;10.20;99.90
20498;DHT22;10407;53.238;10.448;2023-05-07T07:39:58;10.00;99.90
20498;DHT22;10407;53.238;10.448;2023-05-07T07:42:26;10.30;99.90
20498;DHT22;10407;53.238;10.448;2023-05-07T07:44:53;10.30;99.90
20498;DHT22;10407;53.238;10.448;2023-05-07T07:47:21;10.30;99.90
20498;DHT22;10407;53.238;10.448;2023-05-07T07:49:48;10.30;99.90
20498;DHT22;10407;53.238;10.448;2023-05-07T07:52:16;10.20;99.90
20498;DHT22;10407;53.238;10.448;2023-05-07T07:54:44;10.30;99.90
20498;DHT22;10407;53.238;10.448;2023-05-07T07:57:12;10.30;99.90
20498;DHT22;10407;53.238;10.448;2023-05-07T07:59:39;10.50;99.90
20498;DHT22;10407;53.238;10.448;2023-05-07T08:02:09;10.40;99.90
20498;DHT22;10407;53.238;10.448;2023-05-07T08:04:36;10.30;99.90
20498;DHT22;10407;53.238;10.448;2023-05-07T08:07:04;10.30;99.90
20498;DHT22;10407;53.238;10.448;2023-05-07T08:09:32;10.30;99.90
20498;DHT22;10407;53.238;10.448;2023-05-07T08:11:59;10.30;99.90
20498;DHT22;10407;53.238;10.448;2023-05-07T08:14:27;10.40;99.90
20498;DHT22;10407;53.238;10.448;2023-05-07T08:16:55;10.50;99.90
20498;DHT22;10407;53.238;10.448;2023-05-07T08:19:23;10.50;99.90
20498;DHT22;10407;53.238;10.448;2023-05-07T08:21:51;10.50;99.90
20498;DHT22;10407;53.238;10.448;2023-05-07T08:24:18;10.30;99.90
20498;DHT22;10407;53.238;10.448;2023-05-07T08:26:46;10.50;99.90
20498;DHT22;10407;53.238;10.448;2023-05-07T08:29:13;10.50;99.90
20498;DHT22;10407;53.238;10.448;2023-05-07T08:31:41;10.60;99.90
20498;DHT22;10407;53.238;10.448;2023-05-07T08:34:08;10.50;99.90
20498;DHT22;10407;53.238;10.448;2023-05-07T08:36:36;10.60;99.90
20498;DHT22;10407;53.238;10.448;2023-05-07T08:39:03;10.70;99.90
20498;DHT22;10407;53.238;10.448;2023-05-07T08:41:31;10.60;99.90
20498;DHT22;10407;53.238;10.448;2023-05-07T08:44:01;10.50;99.90
20498;DHT22;10407;53.238;10.448;2023-05-07T08:46:32;10.30;99.90
20498;DHT22;10407;53.238;10.448;2023-05-07T08:48:59;10.50;99.90
20498;DHT22;10407;53.238;10.448;2023-05-07T08:51:27;10.60;99.90
20498;DHT22;10407;53.238;10.448;2023-05-07T08:53:55;10.80;99.90
20498;DHT22;10407;53.238;10.448;2023-05-07T08:56:22;10.50;99.90
20498;DHT22;10407;53.238;10.448;2023-05-07T08:58:50;10.70;99.90
20498;DHT22;10407;53.238;10.448;2023-05-07T09:01:17;11.00;99.90
20498;DHT22;10407;53.238;10.448;2023-05-07T09:03:46;11.10;99.90
20498;DHT22;10407;53.238;10.448;2023-05-07T09:06:14;11.10;99.90
20498;DHT22;10407;53.238;10.448;2023-05-07T09:08:51;11.20;99.90
20498;DHT22;10407;53.238;10.448;2023-05-07T09:11:23;11.20;99.90
20498;DHT22;10407;53.238;10.448;2023-05-07T09:13:55;11.00;99.90
20498;DHT22;10407;53.238;10.448;2023-05-07T09:16:24;10.80;99.90
20498;DHT22;10407;53.238;10.448;2023-05-07T09:18:53;10.90;99.90
20498;DHT22;10407;53.238;10.448;2023-05-07T09:21:21;10.70;99.90
20498;DHT22;10407;53.238;10.448;2023-05-07T09:23:51;10.80;99.90
20498;DHT22;10407;53.238;10.448;2023-05-07T09:26:21;10.90;99.90
20498;DHT22;10407;53.238;10.448;2023-05-07T09:28:49;10.90;99.90
20498;DHT22;10407;53.238;10.448;2023-05-07T09:31:17;10.80;99.90
20498;DHT22;10407;53.238;10.448;2023-05-07T09:33:44;11.00;99.90
20498;DHT22;10407;53.238;10.448;2023-05-07T09:36:12;11.00;99.90
20498;DHT22;10407;53.238;10.448;2023-05-07T09:38:40;11.10;99.90
20498;DHT22;10407;53.238;10.448;2023-05-07T09:41:13;11.20;99.90
20498;DHT22;10407;53.238;10.448;2023-05-07T09:43:41;11.30;99.90
20498;DHT22;10407;53.238;10.448;2023-05-07T09:46:15;11.40;99.90
20498;DHT22;10407;53.238;10.448;2023-05-07T09:48:44;11.40;99.90
20498;DHT22;10407;53.238;10.448;2023-05-07T09:51:38;11.60;99.90
20498;DHT22;10407;53.238;10.448;2023-05-07T09:54:04;11.40;99.90
20498;DHT22;10407;53.238;10.448;2023-05-07T09:56:32;11.60;99.90
20498;DHT22;10407;53.238;10.448;2023-05-07T09:59:01;11.90;99.90
20498;DHT22;10407;53.238;10.448;2023-05-07T10:01:31;11.70;99.90
20498;DHT22;10407;53.238;10.448;2023-05-07T10:04:02;11.70;99.90
20498;DHT22;10407;53.238;10.448;2023-05-07T10:06:31;11.40;99.90
20498;DHT22;10407;53.238;10.448;2023-05-07T10:08:59;11.60;99.90
20498;DHT22;10407;53.238;10.448;2023-05-07T10:11:28;11.40;99.90
20498;DHT22;10407;53.238;10.448;2023-05-07T10:13:56;11.40;99.90
20498;DHT22;10407;53.238;10.448;2023-05-07T10:16:25;11.60;99.90
20498;DHT22;10407;53.238;10.448;2023-05-07T10:18:54;11.50;99.90
20498;DHT22;10407;53.238;10.448;2023-05-07T10:21:23;11.80;99.90
20498;DHT22;10407;53.238;10.448;2023-05-07T10:23:59;11.60;99.90
20498;DHT22;10407;53.238;10.448;2023-05-07T10:26:29;11.40;99.90
20498;DHT22;10407;53.238;10.448;2023-05-07T10:29:12;11.40;99.90
20498;DHT22;10407;53.238;10.448;2023-05-07T10:34:16;11.50;99.90
20498;DHT22;10407;53.238;10.448;2023-05-07T10:36:45;11.60;99.90
20498;DHT22;10407;53.238;10.448;2023-05-07T10:39:13;11.90;99.90
20498;DHT22;10407;53.238;10.448;2023-05-07T10:41:40;11.70;99.90
20498;DHT22;10407;53.238;10.448;2023-05-07T10:44:08;11.60;99.90
20498;DHT22;10407;53.238;10.448;2023-05-07T10:46:36;11.80;99.90
20498;DHT22;10407;53.238;10.448;2023-05-07T10:51:35;11.80;99.90
20498;DHT22;10407;53.238;10.448;2023-05-07T10:56:44;11.90;99.90
20498;DHT22;10407;53.238;10.448;2023-05-07T10:59:33;12.00;99.90
20498;DHT22;10407;53.238;10.448;2023-05-07T11:02:02;11.90;99.90
20498;DHT22;10407;53.238;10.448;2023-05-07T11:04:32;11.80;99.90
20498;DHT22;10407;53.238;10.448;2023-05-07T11:15:13;12.20;99.90
20498;DHT22;10407;53.238;10.448;2023-05-07T11:17:56;12.60;99.90
20498;DHT22;10407;53.238;10.448;2023-05-07T11:20:55;12.50;99.90
20498;DHT22;10407;53.238;10.448;2023-05-07T11:26:08;12.60;99.90
20498;DHT22;10407;53.238;10.448;2023-05-07T11:28:39;12.80;99.90
20498;DHT22;10407;53.238;10.448;2023-05-07T11:31:07;13.00;99.90
20498;DHT22;10407;53.238;10.448;2023-05-07T11:33:35;12.90;99.90
20498;DHT22;10407;53.238;10.448;2023-05-07T11:36:05;13.10;99.90
20498;DHT22;10407;53.238;10.448;2023-05-07T11:38:36;13.30;99.90
20498;DHT22;10407;53.238;10.448;2023-05-07T11:41:05;13.20;99.90
20498;DHT22;10407;53.238;10.448;2023-05-07T11:43:33;13.10;99.90
20498;DHT22;10407;53.238;10.448;2023-05-07T11:46:07;13.70;99.90
20498;DHT22;10407;53.238;10.448;2023-05-07T11:48:36;13.30;99.90
20498;DHT22;10407;53.238;10.448;2023-05-07T11:51:05;13.60;99.90
20498;DHT22;10407;53.238;10.448;2023-05-07T11:53:39;13.70;99.90
20498;DHT22;10407;53.238;10.448;2023-05-07T11:56:09;13.90;99.90
20498;DHT22;10407;53.238;10.448;2023-05-07T11:58:47;13.60;99.90
20498;DHT22;10407;53.238;10.448;2023-05-07T12:01:15;13.60;99.90
20498;DHT22;10407;53.238;10.448;2023-05-07T12:03:44;13.40;99.90
20498;DHT22;10407;53.238;10.448;2023-05-07T12:06:14;13.50;99.90
20498;DHT22;10407;53.238;10.448;2023-05-07T12:08:43;13.60;99.90
20498;DHT22;10407;53.238;10.448;2023-05-07T12:11:18;13.60;99.90
20498;DHT22;10407;53.238;10.448;2023-05-07T12:13:44;13.20;99.90
20498;DHT22;10407;53.238;10.448;2023-05-07T12:16:12;13.60;99.90
20498;DHT22;10407;53.238;10.448;2023-05-07T12:18:40;13.90;99.90
20498;DHT22;10407;53.238;10.448;2023-05-07T12:21:09;14.10;99.90
20498;DHT22;10407;53.238;10.448;2023-05-07T12:23:37;14.20;99.90
20498;DHT22;10407;53.238;10.448;2023-05-07T12:26:05;14.20;99.90
20498;DHT22;10407;53.238;10.448;2023-05-07T12:28:39;14.30;99.90
20498;DHT22;10407;53.238;10.448;2023-05-07T12:31:05;14.40;99.90
20498;DHT22;10407;53.238;10.448;2023-05-07T12:33:33;14.20;99.90
20498;DHT22;10407;53.238;10.448;2023-05-07T12:36:04;14.50;99.90
20498;DHT22;10407;53.238;10.448;2023-05-07T12:38:37;14.80;99.90
20498;DHT22;10407;53.238;10.448;2023-05-07T12:41:06;14.90;99.90
20498;DHT22;10407;53.238;10.448;2023-05-07T12:43:34;14.80;99.90
20498;DHT22;10407;53.238;10.448;2023-05-07T12:46:04;14.90;99.90
20498;DHT22;10407;53.238;10.448;2023-05-07T12:48:32;14.70;99.90
20498;DHT22;10407;53.238;10.448;2023-05-07T12:51:01;15.10;99.90
20498;DHT22;10407;53.238;10.448;2023-05-07T12:53:29;15.30;99.50
20498;DHT22;10407;53.238;10.448;2023-05-07T12:55:59;15.50;98.40
20498;DHT22;10407;53.238;10.448;2023-05-07T12:58:29;15.70;98.40
20498;DHT22;10407;53.238;10.448;2023-05-07T13:00:59;15.60;97.80
20498;DHT22;10407;53.238;10.448;2023-05-07T13:03:29;15.40;97.50
20498;DHT22;10407;53.238;10.448;2023-05-07T13:06:06;15.60;97.60
20498;DHT22;10407;53.238;10.448;2023-05-07T13:08:32;15.60;95.60
20498;DHT22;10407;53.238;10.448;2023-05-07T13:11:01;15.60;95.60
20498;DHT22;10407;53.238;10.448;2023-05-07T13:13:31;15.60;94.50
20498;DHT22;10407;53.238;10.448;2023-05-07T13:16:00;15.50;96.10
20498;DHT22;10407;53.238;10.448;2023-05-07T13:18:30;15.60;95.40
20498;DHT22;10407;53.238;10.448;2023-05-07T13:20:58;15.80;95.40
20498;DHT22;10407;53.238;10.448;2023-05-07T13:23:27;15.70;94.70
20498;DHT22;10407;53.238;10.448;2023-05-07T13:25:55;15.90;94.60
20498;DHT22;10407;53.238;10.448;2023-05-07T13:28:27;15.60;94.10
20498;DHT22;10407;53.238;10.448;2023-05-07T13:30:54;15.30;94.80
20498;DHT22;10407;53.238;10.448;2023-05-07T13:33:22;15.50;96.40
20498;DHT22;10407;53.238;10.448;2023-05-07T13:35:50;15.60;95.00
20498;DHT22;10407;53.238;10.448;2023-05-07T13:38:18;15.90;94.40
20498;DHT22;10407;53.238;10.448;2023-05-07T13:40:45;16.20;93.80
20498;DHT22;10407;53.238;10.448;2023-05-07T13:43:13;15.80;91.80
20498;DHT22;10407;53.238;10.448;2023-05-07T13:45:40;15.80;92.10
20498;DHT22;10407;53.238;10.448;2023-05-07T13:48:08;15.60;93.00
20498;DHT22;10407;53.238;10.448;2023-05-07T13:50:36;15.80;93.00
20498;DHT22;10407;53.238;10.448;2023-05-07T13:53:03;15.60;92.90
20498;DHT22;10407;53.238;10.448;2023-05-07T13:55:31;15.40;92.70
20498;DHT22;10407;53.238;10.448;2023-05-07T13:58:00;15.30;92.80
20498;DHT22;10407;53.238;10.448;2023-05-07T14:00:29;15.20;94.90
20498;DHT22;10407;53.238;10.448;2023-05-07T14:02:57;15.20;94.40
20498;DHT22;10407;53.238;10.448;2023-05-07T14:05:24;15.20;95.10
20498;DHT22;10407;53.238;10.448;2023-05-07T14:07:54;15.50;94.10
20498;DHT22;10407;53.238;10.448;2023-05-07T14:10:23;15.60;94.10
20498;DHT22;10407;53.238;10.448;2023-05-07T14:12:50;15.70;94.70
20498;DHT22;10407;53.238;10.448;2023-05-07T14:15:19;15.70;94.00
20498;DHT22;10407;53.238;10.448;2023-05-07T14:17:46;15.40;96.00
20498;DHT22;10407;53.238;10.448;2023-05-07T14:20:14;15.40;96.10
20498;DHT22;10407;53.238;10.448;2023-05-07T14:22:41;15.40;95.10
20498;DHT22;10407;53.238;10.448;2023-05-07T14:25:09;15.20;95.10
20498;DHT22;10407;53.238;10.448;2023-05-07T14:27:37;15.30;94.60
20498;DHT22;10407;53.238;10.448;2023-05-07T14:30:05;15.40;95.90
20498;DHT22;10407;53.238;10.448;2023-05-07T14:32:33;15.70;94.30
20498;DHT22;10407;53.238;10.448;2023-05-07T14:35:01;15.50;94.20
20498;DHT22;10407;53.238;10.448;2023-05-07T14:37:28;15.60;93.60
20498;DHT22;10407;53.238;10.448;2023-05-07T14:39:56;15.50;93.30
20498;DHT22;10407;53.238;10.448;2023-05-07T14:42:24;15.60;92.40
20498;DHT22;10407;53.238;10.448;2023-05-07T14:44:51;15.70;93.10
20498;DHT22;10407;53.238;10.448;2023-05-07T14:47:19;16.00;92.60
20498;DHT22;10407;53.238;10.448;2023-05-07T14:49:47;15.90;90.50
20498;DHT22;10407;53.238;10.448;2023-05-07T14:52:14;16.00;89.60
20498;DHT22;10407;53.238;10.448;2023-05-07T14:54:42;16.30;88.20
20498;DHT22;10407;53.238;10.448;2023-05-07T14:57:10;15.90;86.50
20498;DHT22;10407;53.238;10.448;2023-05-07T14:59:40;15.90;91.20
20498;DHT22;10407;53.238;10.448;2023-05-07T15:02:08;15.90;91.10
20498;DHT22;10407;53.238;10.448;2023-05-07T15:04:36;15.70;92.00
20498;DHT22;10407;53.238;10.448;2023-05-07T15:07:04;15.60;91.50
20498;DHT22;10407;53.238;10.448;2023-05-07T15:09:32;15.40;93.40
20498;DHT22;10407;53.238;10.448;2023-05-07T15:11:59;15.50;93.00
20498;DHT22;10407;53.238;10.448;2023-05-07T15:14:28;15.50;92.80
20498;DHT22;10407;53.238;10.448;2023-05-07T15:16:56;15.60;92.50
20498;DHT22;10407;53.238;10.448;2023-05-07T15:19:23;15.60;91.70
20498;DHT22;10407;53.238;10.448;2023-05-07T15:21:52;15.70;91.60
20498;DHT22;10407;53.238;10.448;2023-05-07T15:24:20;15.90;91.00
20498;DHT22;10407;53.238;10.448;2023-05-07T15:26:48;16.00;90.60
20498;DHT22;10407;53.238;10.448;2023-05-07T15:29:16;16.00;90.50
20498;DHT22;10407;53.238;10.448;2023-05-07T15:31:43;16.00;89.50
20498;DHT22;10407;53.238;10.448;2023-05-07T15:34:11;16.10;89.70
20498;DHT22;10407;53.238;10.448;2023-05-07T15:36:38;16.00;90.10
20498;DHT22;10407;53.238;10.448;2023-05-07T15:39:06;15.90;89.70
20498;DHT22;10407;53.238;10.448;2023-05-07T15:41:33;15.80;90.20
20498;DHT22;10407;53.238;10.448;2023-05-07T15:44:03;15.70;91.20
20498;DHT22;10407;53.238;10.448;2023-05-07T15:46:31;15.70;91.40
20498;DHT22;10407;53.238;10.448;2023-05-07T15:49:01;15.80;91.60
20498;DHT22;10407;53.238;10.448;2023-05-07T15:51:30;15.80;91.70